createdAt,value
2018-05-09T00:00:53.473Z,2.33
2018-05-09T00:03:20.715Z,2.27
2018-05-09T00:05:47.949Z,2.67
2018-05-09T00:08:15.144Z,3.07
2018-05-09T00:10:42.373Z,2.93
2018-05-09T00:13:09.559Z,2.40
2018-05-09T00:15:36.850Z,2.50
2018-05-09T00:18:04.171Z,2.40
2018-05-09T00:20:31.402Z,2.60
2018-05-09T00:22:58.355Z,2.40
2018-05-09T00:25:25.542Z,2.63
2018-05-09T00:27:52.739Z,2.70
2018-05-09T00:30:19.913Z,2.57
2018-05-09T00:32:47.123Z,2.80
2018-05-09T00:35:14.304Z,2.80
2018-05-09T00:37:41.550Z,3.17
2018-05-09T00:40:08.735Z,2.83
2018-05-09T00:42:35.933Z,2.90
2018-05-09T00:45:03.182Z,2.50
2018-05-09T00:47:30.370Z,2.60
2018-05-09T00:49:57.566Z,2.63
2018-05-09T00:52:24.755Z,3.23
2018-05-09T00:54:51.949Z,3.77
2018-05-09T00:57:19.127Z,2.97
2018-05-09T00:59:46.333Z,3.40
2018-05-09T01:02:13.498Z,3.43
2018-05-09T01:04:40.689Z,2.73
2018-05-09T01:07:07.893Z,3.80
2018-05-09T01:09:35.093Z,3.37
2018-05-09T01:12:02.273Z,3.20
2018-05-09T01:14:29.469Z,2.70
2018-05-09T01:16:56.651Z,2.63
2018-05-09T01:19:23.857Z,2.73
2018-05-09T01:21:51.033Z,3.00
2018-05-09T01:24:18.221Z,2.70
2018-05-09T01:26:45.201Z,2.90
2018-05-09T01:29:12.409Z,3.03
2018-05-09T01:31:39.592Z,2.73
2018-05-09T01:34:06.781Z,2.90
2018-05-09T01:36:34.011Z,3.07
2018-05-09T01:39:01.198Z,2.60
2018-05-09T01:41:28.386Z,2.80
2018-05-09T01:43:55.602Z,2.80
2018-05-09T01:46:22.809Z,3.87
2018-05-09T01:48:50.006Z,2.80
2018-05-09T01:51:17.205Z,3.20
2018-05-09T01:53:44.400Z,3.40
2018-05-09T01:56:11.608Z,2.80
2018-05-09T01:58:38.822Z,3.17
2018-05-09T02:01:05.994Z,3.47
2018-05-09T02:03:33.255Z,3.70
2018-05-09T02:06:00.484Z,3.60
2018-05-09T02:08:27.841Z,3.40
2018-05-09T02:10:55.046Z,3.67
2018-05-09T02:13:22.388Z,3.10
2018-05-09T02:15:49.626Z,3.37
2018-05-09T02:18:16.815Z,4.03
2018-05-09T02:20:44.019Z,2.80
2018-05-09T02:23:11.216Z,3.60
2018-05-09T02:25:38.403Z,3.83
2018-05-09T02:28:05.606Z,3.70
2018-05-09T02:30:32.810Z,3.30
2018-05-09T02:33:00.050Z,3.57
2018-05-09T02:35:27.255Z,3.57
2018-05-09T02:37:54.210Z,3.40
2018-05-09T02:40:21.402Z,3.40
2018-05-09T02:42:48.362Z,3.50
2018-05-09T02:45:15.547Z,3.70
2018-05-09T02:47:42.737Z,4.20
2018-05-09T02:50:10.023Z,3.50
2018-05-09T02:52:37.223Z,3.50
2018-05-09T02:55:04.436Z,3.33
2018-05-09T02:57:31.614Z,3.00
2018-05-09T02:59:58.798Z,3.60
2018-05-09T03:02:25.994Z,3.37
2018-05-09T03:04:52.950Z,3.60
2018-05-09T03:07:20.146Z,3.80
2018-05-09T03:09:47.350Z,3.80
2018-05-09T03:12:14.546Z,3.63
2018-05-09T03:14:41.743Z,3.90
2018-05-09T03:17:08.925Z,3.83
2018-05-09T03:19:36.108Z,3.30
2018-05-09T03:22:03.303Z,3.67
2018-05-09T03:24:30.516Z,4.00
2018-05-09T03:26:57.705Z,4.20
2018-05-09T03:29:24.910Z,3.87
2018-05-09T03:31:52.114Z,3.40
2018-05-09T03:34:19.298Z,3.53
2018-05-09T03:36:46.502Z,3.70
2018-05-09T03:39:13.672Z,3.50
2018-05-09T03:41:40.865Z,3.87
2018-05-09T03:44:08.106Z,3.80
2018-05-09T03:46:35.298Z,4.40
2018-05-09T03:49:02.491Z,3.83
2018-05-09T03:51:29.691Z,3.43
2018-05-09T03:53:56.672Z,3.83
2018-05-09T03:56:23.866Z,3.77
2018-05-09T03:58:51.084Z,4.00
2018-05-09T04:01:18.267Z,4.10
2018-05-09T04:03:51.186Z,4.07
2018-05-09T04:06:24.042Z,3.57
2018-05-09T04:08:56.862Z,3.33
2018-05-09T04:11:24.055Z,3.53
2018-05-09T04:13:51.271Z,3.83
2018-05-09T04:16:18.638Z,7.20
2018-05-09T04:18:45.820Z,5.70
2018-05-09T04:21:13.033Z,4.47
2018-05-09T04:23:40.238Z,3.50
2018-05-09T04:26:07.434Z,3.40
2018-05-09T04:28:34.667Z,3.80
2018-05-09T04:31:01.889Z,3.57
2018-05-09T04:33:29.059Z,3.60
2018-05-09T04:35:56.256Z,3.40
2018-05-09T04:38:23.434Z,6.23
2018-05-09T04:40:50.649Z,3.70
2018-05-09T04:43:17.834Z,3.60
2018-05-09T04:45:45.039Z,4.23
2018-05-09T04:48:12.222Z,4.17
2018-05-09T04:50:39.427Z,3.27
2018-05-09T04:53:06.630Z,3.30
2018-05-09T04:55:33.945Z,3.50
2018-05-09T04:58:01.292Z,4.10
2018-05-09T05:00:28.490Z,4.53
2018-05-09T05:02:55.719Z,3.97
2018-05-09T05:07:56.646Z,4.40
2018-05-09T05:10:24.070Z,4.53
2018-05-09T05:12:51.298Z,4.43
2018-05-09T05:15:18.478Z,4.37
2018-05-09T05:17:45.661Z,5.43
2018-05-09T05:20:12.874Z,4.57
2018-05-09T05:22:40.058Z,5.00
2018-05-09T05:25:07.032Z,5.30
2018-05-09T05:27:34.261Z,4.40
2018-05-09T05:30:01.458Z,5.53
2018-05-09T05:32:28.689Z,5.67
2018-05-09T05:34:55.896Z,6.20
2018-05-09T05:37:23.069Z,6.20
2018-05-09T05:39:50.272Z,5.90
2018-05-09T05:42:17.470Z,6.43
2018-05-09T05:44:44.655Z,5.67
2018-05-09T05:47:11.854Z,6.10
2018-05-09T05:49:39.027Z,5.77
2018-05-09T05:52:06.236Z,5.93
2018-05-09T05:54:33.441Z,6.30
2018-05-09T05:57:00.668Z,6.33
2018-05-09T05:59:27.847Z,5.60
2018-05-09T06:01:55.042Z,5.63
2018-05-09T06:04:22.250Z,5.63
2018-05-09T06:06:49.447Z,5.60
2018-05-09T06:09:16.806Z,6.10
2018-05-09T06:11:43.995Z,5.00
2018-05-09T06:14:11.225Z,6.17
2018-05-09T06:16:38.433Z,5.40
2018-05-09T06:19:05.702Z,5.73
2018-05-09T06:21:32.906Z,4.60
2018-05-09T06:24:00.182Z,5.27
2018-05-09T06:26:27.508Z,5.40
2018-05-09T06:28:54.682Z,6.37
2018-05-09T06:31:21.897Z,5.90
2018-05-09T06:33:49.090Z,5.97
2018-05-09T06:36:16.291Z,5.23
2018-05-09T06:38:43.484Z,5.87
2018-05-09T06:41:10.669Z,6.10
2018-05-09T06:43:37.924Z,5.30
2018-05-09T06:46:05.254Z,5.20
2018-05-09T06:48:32.460Z,5.80
2018-05-09T06:50:59.653Z,4.73
2018-05-09T06:53:26.833Z,5.20
2018-05-09T06:55:54.052Z,5.80
2018-05-09T06:58:21.294Z,5.63
2018-05-09T07:00:48.259Z,5.30
2018-05-09T07:03:15.218Z,5.63
2018-05-09T07:05:42.407Z,6.03
2018-05-09T07:08:09.614Z,5.33
2018-05-09T07:10:36.789Z,5.80
2018-05-09T07:13:04.010Z,6.50
2018-05-09T07:15:31.190Z,5.93
2018-05-09T07:17:58.432Z,4.60
2018-05-09T07:20:25.685Z,5.40
2018-05-09T07:22:52.927Z,5.93
2018-05-09T07:25:20.127Z,5.53
2018-05-09T07:27:47.314Z,6.00
2018-05-09T07:30:14.590Z,5.13
2018-05-09T07:32:41.906Z,5.03
2018-05-09T07:35:09.106Z,5.27
2018-05-09T07:37:36.296Z,4.93
2018-05-09T07:40:03.532Z,4.63
2018-05-09T07:42:30.746Z,5.47
2018-05-09T07:44:57.955Z,4.70
2018-05-09T07:47:25.184Z,5.03
2018-05-09T07:49:52.363Z,5.20
2018-05-09T07:52:19.562Z,5.30
2018-05-09T07:54:46.754Z,5.23
2018-05-09T07:57:13.986Z,4.90
2018-05-09T07:59:41.279Z,4.73
2018-05-09T08:02:08.507Z,5.47
2018-05-09T08:04:35.705Z,5.70
2018-05-09T08:07:02.913Z,5.03
2018-05-09T08:09:30.098Z,4.63
2018-05-09T08:11:57.312Z,5.40
2018-05-09T08:14:24.519Z,5.17
2018-05-09T08:16:51.487Z,5.50
2018-05-09T08:19:18.698Z,5.20
2018-05-09T08:21:45.911Z,4.93
2018-05-09T08:24:13.124Z,4.83
2018-05-09T08:26:40.309Z,4.20
2018-05-09T08:29:07.546Z,2.90
2018-05-09T08:31:34.738Z,4.93
2018-05-09T08:34:01.993Z,4.47
2018-05-09T08:36:29.207Z,4.10
2018-05-09T08:38:56.436Z,4.67
2018-05-09T08:41:23.649Z,4.17
2018-05-09T08:43:50.877Z,4.70
2018-05-09T08:46:19.963Z,4.00
2018-05-09T08:48:47.195Z,3.97
2018-05-09T08:51:14.392Z,3.70
2018-05-09T08:53:41.573Z,4.10
2018-05-09T08:56:08.781Z,4.80
2018-05-09T08:58:36.170Z,3.97
2018-05-09T09:01:03.351Z,4.73
2018-05-09T09:03:30.545Z,4.00
2018-05-09T09:05:57.729Z,4.67
2018-05-09T09:08:24.953Z,3.70
2018-05-09T09:10:52.246Z,4.00
2018-05-09T09:13:20.150Z,4.30
2018-05-09T09:15:47.359Z,3.97
2018-05-09T09:18:14.559Z,3.50
2018-05-09T09:20:41.759Z,4.53
2018-05-09T09:25:42.735Z,4.90
2018-05-09T09:28:09.922Z,4.27
2018-05-09T09:30:37.119Z,5.00
2018-05-09T09:33:04.074Z,5.63
2018-05-09T09:35:31.274Z,4.30
2018-05-09T09:37:58.474Z,4.67
2018-05-09T09:40:25.667Z,5.60
2018-05-09T09:42:53.083Z,6.00
2018-05-09T09:45:20.262Z,4.60
2018-05-09T09:47:47.493Z,5.10
2018-05-09T09:50:14.688Z,4.77
2018-05-09T09:52:41.901Z,8.00
2018-05-09T09:55:09.101Z,4.90
2018-05-09T09:57:36.318Z,4.73
2018-05-09T10:00:03.554Z,4.47
2018-05-09T10:02:30.758Z,4.87
2018-05-09T10:04:57.961Z,4.50
2018-05-09T10:07:25.166Z,4.13
2018-05-09T10:09:52.386Z,3.73
2018-05-09T10:12:19.590Z,4.43
2018-05-09T10:14:46.811Z,3.40
2018-05-09T10:17:14.010Z,4.30
2018-05-09T10:19:41.222Z,3.87
2018-05-09T10:22:08.414Z,3.93
2018-05-09T10:24:35.608Z,4.27
2018-05-09T10:27:02.813Z,8.50
2018-05-09T10:29:30.001Z,3.60
2018-05-09T10:31:56.980Z,4.27
2018-05-09T10:34:23.936Z,4.00
2018-05-09T10:36:51.154Z,4.07
2018-05-09T10:39:18.347Z,3.73
2018-05-09T10:41:45.537Z,3.37
2018-05-09T10:44:12.841Z,3.57
2018-05-09T10:46:40.047Z,3.40
2018-05-09T10:49:07.248Z,3.70
2018-05-09T10:51:34.429Z,3.83
2018-05-09T10:54:01.627Z,3.37
2018-05-09T10:56:28.832Z,3.53
2018-05-09T10:58:56.019Z,3.57
2018-05-09T11:01:23.221Z,3.30
2018-05-09T11:03:50.415Z,3.30
2018-05-09T11:06:17.612Z,2.90
2018-05-09T11:08:44.826Z,3.17
2018-05-09T11:11:11.810Z,3.67
2018-05-09T11:13:38.771Z,3.43
2018-05-09T11:16:05.738Z,3.10
2018-05-09T11:18:32.943Z,2.53
2018-05-09T11:21:00.216Z,3.10
2018-05-09T11:23:27.402Z,2.50
2018-05-09T11:25:54.606Z,2.23
2018-05-09T11:28:21.807Z,3.10
2018-05-09T11:30:49.009Z,2.50
2018-05-09T11:33:16.198Z,2.30
2018-05-09T11:35:43.408Z,2.30
2018-05-09T11:38:10.614Z,2.70
2018-05-09T11:40:37.830Z,3.80
2018-05-09T11:43:05.063Z,2.50
2018-05-09T11:45:32.291Z,2.30
2018-05-09T11:48:04.790Z,2.57
2018-05-09T11:50:31.972Z,2.33
2018-05-09T11:52:59.205Z,1.90
2018-05-09T11:55:26.488Z,2.23
2018-05-09T11:57:53.697Z,2.30
2018-05-09T12:00:20.879Z,2.83
2018-05-09T12:02:48.078Z,2.53
2018-05-09T12:05:15.305Z,2.57
2018-05-09T12:07:42.687Z,2.77
2018-05-09T12:10:09.892Z,2.50
2018-05-09T12:12:37.087Z,2.70
2018-05-09T12:15:04.075Z,2.80
2018-05-09T12:17:31.262Z,2.23
2018-05-09T12:19:58.455Z,3.10
2018-05-09T12:22:25.634Z,2.60
2018-05-09T12:24:52.842Z,2.37
2018-05-09T12:27:20.030Z,2.30
2018-05-09T12:29:47.226Z,2.60
2018-05-09T12:32:14.430Z,3.00
2018-05-09T12:34:41.610Z,2.90
2018-05-09T12:37:08.823Z,2.50
2018-05-09T12:39:36.033Z,2.30
2018-05-09T12:42:03.224Z,2.50
2018-05-09T12:44:30.424Z,2.30
2018-05-09T12:46:57.695Z,2.50
2018-05-09T12:49:24.891Z,2.60
2018-05-09T12:51:52.079Z,2.80
2018-05-09T12:54:19.290Z,2.37
2018-05-09T12:56:46.520Z,2.70
2018-05-09T12:59:13.724Z,2.40
2018-05-09T13:01:40.918Z,2.37
2018-05-09T13:04:08.107Z,2.67
2018-05-09T13:06:35.295Z,2.63
2018-05-09T13:09:02.499Z,2.77
2018-05-09T13:11:29.710Z,3.10
2018-05-09T13:13:56.898Z,2.57
2018-05-09T13:16:24.111Z,2.70
2018-05-09T13:18:51.298Z,2.50
2018-05-09T13:21:18.536Z,2.50
2018-05-09T13:23:45.765Z,3.07
2018-05-09T13:26:12.976Z,2.80
2018-05-09T13:28:40.178Z,2.50
2018-05-09T13:31:07.384Z,2.73
2018-05-09T13:33:34.659Z,3.07
2018-05-09T13:36:01.890Z,3.23
2018-05-09T13:38:29.089Z,2.37
2018-05-09T13:40:56.327Z,2.50
2018-05-09T13:43:23.545Z,1.70
2018-05-09T13:45:50.748Z,2.20
2018-05-09T13:48:17.949Z,1.70
2018-05-09T13:50:45.142Z,1.83
2018-05-09T13:53:12.329Z,1.90
2018-05-09T13:55:39.549Z,1.90
2018-05-09T13:58:06.787Z,1.50
2018-05-09T14:00:33.987Z,1.50
2018-05-09T14:03:01.171Z,1.30
2018-05-09T14:05:28.371Z,1.40
2018-05-09T14:07:55.606Z,1.67
2018-05-09T14:10:22.797Z,1.03
2018-05-09T14:12:50.006Z,1.27
2018-05-09T14:15:17.186Z,1.23
2018-05-09T14:17:44.397Z,1.60
2018-05-09T14:20:11.589Z,1.40
2018-05-09T14:22:38.847Z,1.30
2018-05-09T14:25:06.125Z,1.30
2018-05-09T14:27:33.450Z,1.30
2018-05-09T14:30:00.661Z,1.70
2018-05-09T14:32:27.877Z,1.93
2018-05-09T14:34:55.127Z,4.17
2018-05-09T14:37:22.365Z,3.33
2018-05-09T14:39:49.653Z,2.97
2018-05-09T14:42:16.831Z,3.90
2018-05-09T14:44:44.018Z,3.33
2018-05-09T14:47:11.247Z,3.93
2018-05-09T14:49:38.430Z,3.30
2018-05-09T14:52:05.650Z,3.30
2018-05-09T14:54:32.945Z,2.40
2018-05-09T14:57:00.256Z,2.63
2018-05-09T14:59:27.472Z,3.70
2018-05-09T15:01:54.698Z,3.10
2018-05-09T15:04:21.906Z,2.63
2018-05-09T15:06:49.094Z,2.90
2018-05-09T15:09:16.279Z,2.60
2018-05-09T15:11:43.474Z,2.47
2018-05-09T15:14:10.737Z,2.03
2018-05-09T15:16:38.104Z,2.73
2018-05-09T15:19:05.305Z,2.17
2018-05-09T15:21:32.525Z,2.30
2018-05-09T15:23:59.711Z,3.63
2018-05-09T15:26:26.915Z,2.30
2018-05-09T15:28:54.112Z,2.10
2018-05-09T15:31:21.338Z,2.17
2018-05-09T15:33:48.538Z,2.83
2018-05-09T15:36:15.744Z,2.87
2018-05-09T15:38:43.046Z,2.40
2018-05-09T15:41:10.367Z,2.10
2018-05-09T15:43:37.562Z,2.37
2018-05-09T15:46:04.767Z,2.40
2018-05-09T15:48:31.975Z,2.50
2018-05-09T15:50:59.161Z,2.40
2018-05-09T15:53:26.383Z,2.60
2018-05-09T15:55:53.570Z,2.20
2018-05-09T15:58:20.779Z,3.60
2018-05-09T16:00:48.007Z,3.07
2018-05-09T16:03:15.364Z,2.60
2018-05-09T16:05:42.566Z,2.50
2018-05-09T16:08:09.739Z,2.60
2018-05-09T16:10:36.971Z,2.37
2018-05-09T16:13:04.157Z,2.90
2018-05-09T16:15:31.350Z,3.07
2018-05-09T16:17:58.545Z,2.53
2018-05-09T16:20:25.750Z,2.30
2018-05-09T16:22:52.942Z,1.97
2018-05-09T16:25:20.150Z,2.17
2018-05-09T16:27:47.362Z,2.40
2018-05-09T16:30:14.562Z,3.03
2018-05-09T16:32:41.757Z,2.40
2018-05-09T16:35:08.936Z,2.47
2018-05-09T16:37:36.159Z,2.90
2018-05-09T16:40:03.365Z,2.60
2018-05-09T16:42:30.565Z,2.53
2018-05-09T16:44:57.796Z,2.30
2018-05-09T16:47:25.007Z,2.60
2018-05-09T16:49:52.204Z,3.13
2018-05-09T16:52:19.410Z,3.03
2018-05-09T16:54:46.639Z,2.97
2018-05-09T16:57:14.275Z,3.07
2018-05-09T16:59:41.490Z,3.40
2018-05-09T17:02:09.904Z,3.50
2018-05-09T17:04:37.114Z,3.43
2018-05-09T17:07:04.318Z,2.70
2018-05-09T17:09:31.527Z,3.10
2018-05-09T17:11:58.718Z,3.00
2018-05-09T17:14:25.943Z,3.20
2018-05-09T17:16:53.150Z,3.20
2018-05-09T17:19:20.357Z,3.10
2018-05-09T17:22:07.813Z,3.03
2018-05-09T17:24:35.006Z,3.00
2018-05-09T17:27:02.302Z,2.97
2018-05-09T17:29:29.492Z,3.20
2018-05-09T17:31:57.460Z,3.63
2018-05-09T17:34:24.689Z,3.00
2018-05-09T17:36:51.925Z,5.30
2018-05-09T17:39:19.307Z,9.67
2018-05-09T17:41:46.521Z,5.83
2018-05-09T17:44:13.719Z,5.67
2018-05-09T17:46:40.936Z,7.00
2018-05-09T17:49:08.187Z,3.87
2018-05-09T17:51:36.007Z,3.90
2018-05-09T17:54:03.339Z,3.10
2018-05-09T17:56:30.533Z,3.20
2018-05-09T17:58:57.824Z,2.90
2018-05-09T18:01:25.151Z,3.20
2018-05-09T18:03:52.428Z,2.77
2018-05-09T18:06:19.618Z,3.00
2018-05-09T18:08:46.803Z,3.73
2018-05-09T18:11:14.035Z,3.10
2018-05-09T18:13:41.237Z,3.30
2018-05-09T18:16:08.490Z,2.77
2018-05-09T18:18:35.711Z,3.07
2018-05-09T18:21:02.916Z,3.60
2018-05-09T18:23:30.148Z,2.97
2018-05-09T18:25:57.330Z,2.97
2018-05-09T18:28:24.657Z,3.77
2018-05-09T18:30:51.876Z,2.63
2018-05-09T18:33:19.086Z,2.33
2018-05-09T18:35:46.316Z,2.10
2018-05-09T18:38:13.524Z,2.27
2018-05-09T18:40:40.735Z,7.87
2018-05-09T18:43:07.942Z,7.90
2018-05-09T18:45:35.150Z,2.80
2018-05-09T18:48:02.451Z,4.13
2018-05-09T18:50:29.674Z,7.50
2018-05-09T18:52:56.866Z,2.47
2018-05-09T18:55:24.083Z,2.37
2018-05-09T18:57:51.282Z,2.60
2018-05-09T19:00:18.518Z,2.93
2018-05-09T19:02:45.752Z,2.30
2018-05-09T19:05:12.975Z,2.47
2018-05-09T19:07:40.186Z,2.73
2018-05-09T19:10:07.412Z,2.63
2018-05-09T19:12:34.621Z,2.60
2018-05-09T19:15:01.818Z,3.20
2018-05-09T19:17:29.041Z,5.10
2018-05-09T19:19:56.245Z,3.43
2018-05-09T19:22:23.485Z,6.13
2018-05-09T19:24:50.680Z,4.50
2018-05-09T19:27:18.265Z,5.35
2018-05-09T19:29:45.603Z,3.63
2018-05-09T19:32:12.796Z,3.00
2018-05-09T19:34:40.112Z,3.80
2018-05-09T19:37:07.340Z,4.60
2018-05-09T19:39:36.486Z,5.07
2018-05-09T19:42:03.471Z,5.83
2018-05-09T19:44:30.692Z,8.10
2018-05-09T19:46:58.020Z,9.83
2018-05-09T19:49:25.260Z,9.20
2018-05-09T19:51:52.471Z,7.20
2018-05-09T19:54:19.660Z,4.30
2018-05-09T19:56:46.863Z,5.77
2018-05-09T19:59:14.187Z,7.20
2018-05-09T20:01:41.400Z,6.63
2018-05-09T20:04:08.635Z,7.33
2018-05-09T20:06:35.857Z,4.30
2018-05-09T20:09:03.059Z,3.00
2018-05-09T20:11:30.314Z,3.10
2018-05-09T20:13:57.597Z,4.00
2018-05-09T20:16:24.954Z,3.40
2018-05-09T20:18:52.149Z,4.33
2018-05-09T20:21:19.354Z,3.60
2018-05-09T20:23:46.558Z,3.53
2018-05-09T20:26:13.774Z,3.80
2018-05-09T20:28:47.322Z,4.53
2018-05-09T20:31:26.035Z,5.90
2018-05-09T20:33:53.464Z,6.07
2018-05-09T20:36:20.686Z,7.07
2018-05-09T20:38:47.909Z,9.97
2018-05-09T20:41:15.193Z,7.20
2018-05-09T20:43:42.392Z,5.63
2018-05-09T20:46:09.587Z,5.50
2018-05-09T20:48:36.808Z,4.03
2018-05-09T20:51:04.039Z,5.50
2018-05-09T20:53:31.267Z,4.70
2018-05-09T20:55:58.495Z,3.90
2018-05-09T20:58:25.721Z,3.50
2018-05-09T21:00:52.703Z,4.30
2018-05-09T21:03:19.969Z,4.17
2018-05-09T21:05:47.257Z,3.70
2018-05-09T21:08:14.469Z,3.60
2018-05-09T21:10:41.759Z,3.93
2018-05-09T21:13:08.980Z,4.20
2018-05-09T21:15:36.192Z,3.80
2018-05-09T21:18:03.630Z,3.47
2018-05-09T21:20:30.948Z,3.97
2018-05-09T21:22:58.273Z,5.47
2018-05-09T21:25:25.463Z,5.97
2018-05-09T21:27:52.670Z,5.70
2018-05-09T21:30:19.869Z,6.47
2018-05-09T21:32:47.059Z,5.70
2018-05-09T21:35:14.279Z,5.40
2018-05-09T21:37:41.486Z,5.83
2018-05-09T21:40:08.671Z,6.83
2018-05-09T21:42:35.921Z,7.10
2018-05-09T21:45:03.109Z,7.00
2018-05-09T21:47:30.316Z,7.00
2018-05-09T21:49:57.286Z,6.83
2018-05-09T21:52:24.467Z,5.77
2018-05-09T21:54:51.661Z,5.13
2018-05-09T21:57:18.855Z,7.40
2018-05-09T21:59:46.056Z,5.40
2018-05-09T22:02:13.259Z,7.13
2018-05-09T22:04:40.460Z,5.57
2018-05-09T22:07:07.782Z,6.10
2018-05-09T22:09:34.963Z,6.17
2018-05-09T22:12:02.173Z,7.30
2018-05-09T22:14:29.362Z,7.00
2018-05-09T22:16:56.587Z,8.43
2018-05-09T22:19:23.779Z,9.43
2018-05-09T22:21:50.980Z,7.20
2018-05-09T22:24:18.239Z,5.80
2018-05-09T22:26:45.424Z,5.70
2018-05-09T22:29:12.708Z,4.83
2018-05-09T22:31:40.117Z,5.50
2018-05-09T22:34:07.344Z,5.57
2018-05-09T22:36:34.551Z,5.20
2018-05-09T22:39:01.762Z,4.83
2018-05-09T22:41:28.962Z,5.80
2018-05-09T22:43:56.150Z,4.67
2018-05-09T22:46:23.383Z,5.13
2018-05-09T22:48:50.575Z,5.00
2018-05-09T22:51:17.845Z,4.57
2018-05-09T22:53:45.045Z,4.17
2018-05-09T22:56:12.557Z,4.37
2018-05-09T22:58:39.761Z,4.43
2018-05-09T23:01:06.730Z,5.03
2018-05-09T23:03:33.910Z,4.87
2018-05-09T23:06:01.102Z,4.47
2018-05-09T23:08:28.336Z,3.90
2018-05-09T23:10:55.558Z,4.60
2018-05-09T23:13:22.745Z,3.80
2018-05-09T23:15:49.958Z,3.93
2018-05-09T23:18:17.159Z,4.50
2018-05-09T23:20:44.342Z,4.10
2018-05-09T23:23:11.577Z,4.73
2018-05-09T23:25:38.769Z,5.07
2018-05-09T23:28:05.969Z,4.70
2018-05-09T23:30:33.150Z,3.60
2018-05-09T23:33:00.344Z,4.00
2018-05-09T23:35:27.600Z,3.33
2018-05-09T23:37:54.785Z,3.33
2018-05-09T23:40:21.980Z,4.43
2018-05-09T23:42:49.198Z,4.33
2018-05-09T23:45:16.395Z,3.37
2018-05-09T23:47:43.574Z,3.60
2018-05-09T23:50:10.792Z,2.67
2018-05-09T23:52:37.979Z,4.17
2018-05-09T23:55:05.178Z,4.47
2018-05-09T23:57:32.395Z,4.07
2018-05-09T23:59:59.583Z,4.20
